createdAt,value
2018-07-19T00:00:18.334Z,99083.66
2018-07-19T00:02:47.398Z,99089.04
2018-07-19T00:05:16.505Z,99081.07
2018-07-19T00:07:45.650Z,99089.83
2018-07-19T00:10:14.763Z,99089.95
2018-07-19T00:12:43.858Z,99085.94
2018-07-19T00:15:12.910Z,99082.28
2018-07-19T00:17:42.062Z,99094.11
2018-07-19T00:20:11.202Z,99091.51
2018-07-19T00:22:40.253Z,99089.87
2018-07-19T00:25:09.389Z,99092.68
2018-07-19T00:27:38.489Z,99091.12
2018-07-19T00:30:07.513Z,99087.33
2018-07-19T00:32:36.620Z,99085.89
2018-07-19T00:35:05.902Z,99090.25
2018-07-19T00:37:34.941Z,99099.88
2018-07-19T00:40:04.047Z,99097.44
2018-07-19T00:42:33.103Z,99097.84
2018-07-19T00:45:02.151Z,99095.80
2018-07-19T00:47:31.213Z,99089.83
2018-07-19T00:50:00.252Z,99089.04
2018-07-19T00:52:29.279Z,99093.21
2018-07-19T00:54:58.374Z,99084.08
2018-07-19T00:57:27.786Z,99085.75
2018-07-19T00:59:56.841Z,99086.22
2018-07-19T01:02:25.877Z,99087.62
2018-07-19T01:04:54.947Z,99088.96
2018-07-19T01:07:24.014Z,99087.77
2018-07-19T01:09:53.064Z,99084.03
2018-07-19T01:12:22.088Z,99088.81
2018-07-19T01:14:51.209Z,99087.44
2018-07-19T01:17:20.258Z,99085.95
2018-07-19T01:19:49.293Z,99093.67
2018-07-19T01:22:18.304Z,99090.38
2018-07-19T01:24:47.385Z,99089.98
2018-07-19T01:27:16.429Z,99086.82
2018-07-19T01:29:45.538Z,99084.60
2018-07-19T01:32:14.629Z,99081.67
2018-07-19T01:34:43.757Z,99081.68
2018-07-19T01:37:12.801Z,99081.28
2018-07-19T01:39:41.841Z,99080.13
2018-07-19T01:42:23.435Z,99083.41
2018-07-19T01:44:52.508Z,99076.69
2018-07-19T01:47:21.574Z,99079.92
2018-07-19T01:49:50.644Z,99072.67
2018-07-19T01:52:19.685Z,99080.62
2018-07-19T01:54:48.805Z,99073.39
2018-07-19T01:57:18.623Z,99080.31
2018-07-19T01:59:48.361Z,99079.30
2018-07-19T02:02:18.220Z,99078.41
2018-07-19T02:04:47.544Z,99081.09
2018-07-19T02:07:16.673Z,99077.55
2018-07-19T02:09:46.314Z,99082.02
2018-07-19T02:12:15.409Z,99076.98
2018-07-19T02:14:44.433Z,99079.36
2018-07-19T02:17:14.024Z,99079.75
2018-07-19T02:19:43.106Z,99084.52
2018-07-19T02:22:12.191Z,99075.53
2018-07-19T02:24:41.213Z,99080.27
2018-07-19T02:27:10.358Z,99080.27
2018-07-19T02:29:39.440Z,99079.95
2018-07-19T02:32:08.491Z,99078.70
2018-07-19T02:34:37.534Z,99076.53
2018-07-19T02:37:08.652Z,99077.29
2018-07-19T02:39:38.890Z,99074.00
2018-07-19T02:42:07.941Z,99074.26
2018-07-19T02:44:37.023Z,99075.78
2018-07-19T02:47:06.260Z,99070.85
2018-07-19T02:49:35.337Z,99076.23
2018-07-19T02:52:04.382Z,99070.09
2018-07-19T02:54:33.474Z,99066.23
2018-07-19T02:57:02.489Z,99071.81
2018-07-19T02:59:31.539Z,99066.61
2018-07-19T03:02:00.608Z,99071.08
2018-07-19T03:04:29.674Z,99068.12
2018-07-19T03:06:58.733Z,99063.52
2018-07-19T03:09:28.260Z,99061.05
2018-07-19T03:11:57.326Z,99057.95
2018-07-19T03:14:26.430Z,99065.39
2018-07-19T03:16:55.663Z,99054.53
2018-07-19T03:19:24.828Z,99059.56
2018-07-19T03:21:53.862Z,99053.69
2018-07-19T03:24:22.910Z,99055.92
2018-07-19T03:26:52.326Z,99048.34
2018-07-19T03:29:21.461Z,99051.13
2018-07-19T03:31:50.554Z,99055.76
2018-07-19T03:34:19.629Z,99059.48
2018-07-19T03:36:48.855Z,99058.86
2018-07-19T03:39:17.945Z,99055.81
2018-07-19T03:41:46.984Z,99066.93
2018-07-19T03:44:16.037Z,99066.39
2018-07-19T03:46:45.377Z,99064.42
2018-07-19T03:49:14.480Z,99069.59
2018-07-19T03:51:43.525Z,99061.95
2018-07-19T03:54:12.613Z,99068.09
2018-07-19T03:56:41.667Z,99068.20
2018-07-19T03:59:10.688Z,99066.61
2018-07-19T04:01:39.811Z,99070.20
2018-07-19T04:04:08.881Z,99075.95
2018-07-19T04:06:37.965Z,99077.78
2018-07-19T04:09:07.352Z,99082.07
2018-07-19T04:11:37.114Z,99078.48
2018-07-19T04:14:06.433Z,99077.08
2018-07-19T04:16:35.505Z,99072.76
2018-07-19T04:19:04.599Z,99078.74
2018-07-19T04:21:33.702Z,99071.70
2018-07-19T04:24:02.754Z,99079.73
2018-07-19T04:26:31.860Z,99078.14
2018-07-19T04:29:00.918Z,99080.63
2018-07-19T04:31:30.013Z,99084.81
2018-07-19T04:33:59.122Z,99087.70
2018-07-19T04:36:28.202Z,99091.40
2018-07-19T04:38:57.272Z,99088.61
2018-07-19T04:41:26.350Z,99091.50
2018-07-19T04:43:55.407Z,99092.83
2018-07-19T04:46:24.490Z,99090.41
2018-07-19T04:48:53.578Z,99089.56
2018-07-19T04:51:22.630Z,99086.23
2018-07-19T04:53:51.677Z,99090.07
2018-07-19T04:56:20.712Z,99087.34
2018-07-19T04:58:49.793Z,99087.55
2018-07-19T05:01:18.871Z,99090.92
2018-07-19T05:03:47.916Z,99088.91
2018-07-19T05:06:16.973Z,99086.37
2018-07-19T05:08:46.034Z,99089.36
2018-07-19T05:11:15.110Z,99090.27
2018-07-19T05:13:44.245Z,99091.23
2018-07-19T05:16:13.331Z,99092.36
2018-07-19T05:18:42.397Z,99082.51
2018-07-19T05:21:11.429Z,99087.80
2018-07-19T05:23:40.530Z,99078.85
2018-07-19T05:26:09.592Z,99082.36
2018-07-19T05:28:38.664Z,99078.58
2018-07-19T05:31:08.439Z,99079.18
2018-07-19T05:33:37.615Z,99079.44
2018-07-19T05:36:06.690Z,99082.20
2018-07-19T05:38:36.308Z,99088.33
2018-07-19T05:41:05.329Z,99089.85
2018-07-19T05:43:34.502Z,99090.39
2018-07-19T05:46:03.608Z,99084.59
2018-07-19T05:48:32.683Z,99086.83
2018-07-19T05:51:01.737Z,99086.59
2018-07-19T05:53:30.857Z,99087.65
2018-07-19T05:56:00.035Z,99085.92
2018-07-19T05:58:29.326Z,99090.49
2018-07-19T06:00:58.380Z,99079.80
2018-07-19T06:03:27.456Z,99081.47
2018-07-19T06:05:56.520Z,99081.47
2018-07-19T06:08:25.560Z,99089.91
2018-07-19T06:10:54.668Z,99090.95
2018-07-19T06:13:23.784Z,99091.01
2018-07-19T06:15:52.866Z,99090.06
2018-07-19T06:18:21.915Z,99093.45
2018-07-19T06:20:50.985Z,99094.21
2018-07-19T06:23:20.086Z,99085.98
2018-07-19T06:25:49.246Z,99090.61
2018-07-19T06:28:18.275Z,99093.73
2018-07-19T06:30:47.314Z,99099.09
2018-07-19T06:33:16.601Z,99101.36
2018-07-19T06:35:45.650Z,99099.44
2018-07-19T06:38:14.764Z,99099.53
2018-07-19T06:40:43.844Z,99100.48
2018-07-19T06:43:13.066Z,99097.09
2018-07-19T06:45:42.465Z,99097.50
2018-07-19T06:48:11.684Z,99096.99
2018-07-19T06:50:40.758Z,99099.99
2018-07-19T06:53:10.230Z,99104.45
2018-07-19T06:55:40.176Z,99109.19
2018-07-19T06:58:09.240Z,99109.46
2018-07-19T07:00:38.336Z,99104.38
2018-07-19T07:03:07.437Z,99104.22
2018-07-19T07:05:36.612Z,99111.89
2018-07-19T07:08:05.868Z,99108.04
2018-07-19T07:10:34.902Z,99106.89
2018-07-19T07:13:04.077Z,99107.70
2018-07-19T07:15:33.106Z,99103.69
2018-07-19T07:18:02.195Z,99102.27
2018-07-19T07:20:31.219Z,99106.55
2018-07-19T07:23:00.370Z,99094.64
2018-07-19T07:25:34.367Z,99096.48
2018-07-19T07:28:03.410Z,99092.53
2018-07-19T07:30:32.523Z,99089.16
2018-07-19T07:33:01.626Z,99087.69
2018-07-19T07:35:30.691Z,99088.23
2018-07-19T07:37:59.738Z,99087.64
2018-07-19T07:40:28.763Z,99092.11
2018-07-19T07:45:26.877Z,99086.42
2018-07-19T07:47:55.917Z,99088.06
2018-07-19T07:50:25.263Z,99098.28
2018-07-19T07:52:54.563Z,99096.28
2018-07-19T07:55:23.732Z,99093.28
2018-07-19T07:57:53.090Z,99098.20
2018-07-19T08:00:22.336Z,99093.55
2018-07-19T08:02:51.697Z,99097.67
2018-07-19T08:05:20.861Z,99095.39
2018-07-19T08:07:49.990Z,99089.16
2018-07-19T08:10:19.109Z,99096.06
2018-07-19T08:12:48.259Z,99092.88
2018-07-19T08:15:18.073Z,99094.63
2018-07-19T08:17:47.176Z,99092.38
2018-07-19T08:20:16.393Z,99088.88
2018-07-19T08:22:45.528Z,99083.98
2018-07-19T08:25:14.627Z,99084.45
2018-07-19T08:27:43.646Z,99078.22
2018-07-19T08:30:12.765Z,99074.27
2018-07-19T08:32:41.788Z,99075.98
2018-07-19T08:35:10.874Z,99073.24
2018-07-19T08:37:39.997Z,99084.55
2018-07-19T08:40:09.138Z,99075.32
2018-07-19T08:42:38.336Z,99073.89
2018-07-19T08:45:07.471Z,99075.72
2018-07-19T08:47:36.788Z,99078.65
2018-07-19T08:50:06.038Z,99074.42
2018-07-19T08:52:35.735Z,99078.85
2018-07-19T08:55:04.809Z,99080.41
2018-07-19T08:57:33.922Z,99077.70
2018-07-19T09:00:03.035Z,99078.59
2018-07-19T09:02:32.391Z,99073.86
2018-07-19T09:05:01.448Z,99071.77
2018-07-19T09:07:30.518Z,99072.61
2018-07-19T09:09:59.741Z,99074.23
2018-07-19T09:12:29.044Z,99067.55
2018-07-19T09:14:58.382Z,99071.56
2018-07-19T09:17:27.576Z,99063.28
2018-07-19T09:19:56.833Z,99071.66
2018-07-19T09:22:25.874Z,99067.62
2018-07-19T09:24:54.932Z,99068.72
2018-07-19T09:27:23.987Z,99066.08
2018-07-19T09:29:53.112Z,99060.66
2018-07-19T09:32:22.745Z,99064.77
2018-07-19T09:34:51.818Z,99065.03
2018-07-19T09:37:20.929Z,99068.11
2018-07-19T09:39:49.959Z,99060.66
2018-07-19T09:42:19.075Z,99063.09
2018-07-19T09:44:48.153Z,99056.73
2018-07-19T09:47:17.238Z,99061.56
2018-07-19T09:49:46.269Z,99051.88
2018-07-19T09:52:15.301Z,99055.13
2018-07-19T09:54:52.300Z,99045.36
2018-07-19T09:57:21.478Z,99049.73
2018-07-19T09:59:51.147Z,99043.27
2018-07-19T10:02:20.214Z,99045.25
2018-07-19T10:04:49.274Z,99041.72
2018-07-19T10:07:18.404Z,99046.20
2018-07-19T10:09:47.568Z,99044.09
2018-07-19T10:12:16.719Z,99043.77
2018-07-19T10:14:46.083Z,99038.81
2018-07-19T10:17:15.229Z,99045.81
2018-07-19T10:19:44.372Z,99038.48
2018-07-19T10:22:13.504Z,99038.30
2018-07-19T10:24:42.710Z,99038.16
2018-07-19T10:27:13.444Z,99033.77
2018-07-19T10:29:42.549Z,99033.30
2018-07-19T10:32:11.782Z,99032.80
2018-07-19T10:34:41.388Z,99029.86
2018-07-19T10:37:10.546Z,99037.66
2018-07-19T10:39:39.966Z,99026.25
2018-07-19T10:42:09.571Z,99024.55
2018-07-19T10:44:38.890Z,99024.70
2018-07-19T10:47:07.959Z,99023.11
2018-07-19T10:49:37.109Z,99024.18
2018-07-19T10:52:06.346Z,99022.02
2018-07-19T10:54:35.397Z,99024.85
2018-07-19T10:57:04.491Z,99022.23
2018-07-19T10:59:33.582Z,98897.05
2018-07-19T11:02:02.693Z,99025.51
2018-07-19T11:04:31.882Z,99021.12
2018-07-19T11:07:00.965Z,99022.88
2018-07-19T11:09:30.049Z,99011.91
2018-07-19T11:11:59.070Z,99015.23
2018-07-19T11:14:28.133Z,99014.67
2018-07-19T11:16:57.275Z,99008.90
2018-07-19T11:19:26.453Z,99008.49
2018-07-19T11:21:55.561Z,99007.07
2018-07-19T11:24:24.746Z,99007.55
2018-07-19T11:26:53.898Z,99009.20
2018-07-19T11:29:23.031Z,99008.26
2018-07-19T11:31:52.111Z,99004.02
2018-07-19T11:34:21.232Z,99001.47
2018-07-19T11:36:50.388Z,99003.41
2018-07-19T11:39:19.461Z,98996.39
2018-07-19T11:41:48.969Z,99001.09
2018-07-19T11:44:18.041Z,99002.20
2018-07-19T11:46:47.269Z,98997.19
2018-07-19T11:49:16.468Z,98991.99
2018-07-19T11:51:45.566Z,98990.66
2018-07-19T11:54:14.870Z,98890.80
2018-07-19T11:56:44.092Z,98989.98
2018-07-19T11:59:13.508Z,98989.81
2018-07-19T12:01:42.774Z,98984.92
2018-07-19T12:04:12.045Z,98986.51
2018-07-19T12:06:41.182Z,98982.22
2018-07-19T12:09:11.442Z,98971.50
2018-07-19T12:11:40.573Z,98973.25
2018-07-19T12:14:09.706Z,98970.23
2018-07-19T12:16:38.841Z,98972.63
2018-07-19T12:19:08.066Z,98968.96
2018-07-19T12:21:37.165Z,98965.84
2018-07-19T12:24:06.425Z,98960.79
2018-07-19T12:26:35.985Z,98961.77
2018-07-19T12:29:05.135Z,98955.55
2018-07-19T12:31:35.243Z,98952.75
2018-07-19T12:34:04.436Z,98948.02
2018-07-19T12:36:33.554Z,98950.91
2018-07-19T12:39:02.682Z,98950.45
2018-07-19T12:41:31.766Z,98953.19
2018-07-19T12:44:00.814Z,98951.66
2018-07-19T12:46:29.919Z,98947.95
2018-07-19T12:48:59.195Z,98946.38
2018-07-19T12:51:28.321Z,98949.87
2018-07-19T12:53:57.373Z,98954.17
2018-07-19T12:56:26.530Z,98949.67
2018-07-19T12:58:55.622Z,98945.62
2018-07-19T13:01:24.768Z,98946.36
2018-07-19T13:03:53.908Z,98938.86
2018-07-19T13:06:23.098Z,98945.91
2018-07-19T13:08:52.312Z,98945.68
2018-07-19T13:11:21.705Z,98933.95
2018-07-19T13:13:51.121Z,98935.64
2018-07-19T13:16:20.629Z,98931.46
2018-07-19T13:18:50.173Z,98931.60
2018-07-19T13:21:19.485Z,98932.36
2018-07-19T13:23:48.780Z,98926.63
2018-07-19T13:26:17.978Z,98930.42
2018-07-19T13:28:47.027Z,98929.75
2018-07-19T13:31:16.085Z,98921.94
2018-07-19T13:33:45.150Z,98919.66
2018-07-19T13:36:14.335Z,98914.30
2018-07-19T13:38:44.514Z,98917.09
2018-07-19T13:41:14.017Z,98913.56
2018-07-19T13:43:43.580Z,98917.20
2018-07-19T13:46:13.278Z,98917.80
2018-07-19T13:48:42.445Z,98922.30
2018-07-19T13:51:11.594Z,98913.44
2018-07-19T13:53:55.308Z,98916.70
2018-07-19T13:56:24.408Z,98909.38
2018-07-19T13:58:53.491Z,98914.42
2018-07-19T14:01:22.591Z,98905.91
2018-07-19T14:03:52.697Z,98908.02
2018-07-19T14:06:21.847Z,98914.68
2018-07-19T14:08:50.983Z,98902.62
2018-07-19T14:11:20.098Z,98903.42
2018-07-19T14:13:49.350Z,98894.71
2018-07-19T14:16:18.566Z,98897.83
2018-07-19T14:18:47.799Z,98896.13
2018-07-19T14:21:16.895Z,98894.50
2018-07-19T14:23:46.045Z,98894.89
2018-07-19T14:26:15.068Z,98893.97
2018-07-19T14:28:44.256Z,98894.30
2018-07-19T14:31:13.419Z,98890.21
2018-07-19T14:33:42.511Z,98883.48
2018-07-19T14:36:11.631Z,98883.80
2018-07-19T14:38:40.813Z,98882.59
2018-07-19T14:41:10.787Z,98885.70
2018-07-19T14:43:39.950Z,98882.76
2018-07-19T14:46:09.137Z,98877.98
2018-07-19T14:48:38.171Z,98874.30
2018-07-19T14:51:07.454Z,98874.90
2018-07-19T14:53:36.525Z,98869.32
2018-07-19T14:56:05.760Z,98867.00
2018-07-19T14:58:34.866Z,98864.98
2018-07-19T15:01:04.092Z,98868.55
2018-07-19T15:03:33.364Z,98862.94
2018-07-19T15:06:02.486Z,98867.34
2018-07-19T15:08:32.311Z,98863.93
2018-07-19T15:11:01.366Z,98865.94
2018-07-19T15:13:30.450Z,98862.12
2018-07-19T15:15:59.639Z,98861.33
2018-07-19T15:18:28.758Z,98856.79
2018-07-19T15:20:57.955Z,98860.48
2018-07-19T15:23:27.093Z,98851.55
2018-07-19T15:25:56.702Z,98849.63
2018-07-19T15:28:25.989Z,98843.30
2018-07-19T15:30:55.503Z,98845.63
2018-07-19T15:33:24.568Z,98836.04
2018-07-19T15:35:53.643Z,98841.15
2018-07-19T15:38:22.710Z,98845.86
2018-07-19T15:40:51.803Z,98830.83
2018-07-19T15:43:20.838Z,98830.70
2018-07-19T15:45:49.888Z,98836.68
2018-07-19T15:48:18.938Z,98836.60
2018-07-19T15:50:48.031Z,98838.22
2018-07-19T15:53:17.142Z,98833.91
2018-07-19T15:55:46.210Z,98832.91
2018-07-19T15:58:15.340Z,98835.67
2018-07-19T16:00:44.499Z,98833.67
2018-07-19T16:03:13.599Z,98832.36
2018-07-19T16:05:42.908Z,98825.11
2018-07-19T16:08:12.066Z,98825.92
2018-07-19T16:10:41.246Z,98824.45
2018-07-19T16:13:10.693Z,98820.44
2018-07-19T16:15:40.754Z,98814.26
2018-07-19T16:18:09.986Z,98820.97
2018-07-19T16:20:39.097Z,98812.20
2018-07-19T16:23:08.429Z,98821.11
2018-07-19T16:25:37.628Z,98813.77
2018-07-19T16:28:06.734Z,98813.84
2018-07-19T16:30:36.644Z,98814.11
2018-07-19T16:33:05.927Z,98812.20
2018-07-19T16:35:34.996Z,98814.54
2018-07-19T16:38:04.146Z,98810.38
2018-07-19T16:40:33.427Z,98809.72
2018-07-19T16:43:02.566Z,98815.91
2018-07-19T16:45:31.697Z,98810.67
2018-07-19T16:48:01.042Z,98813.00
2018-07-19T16:50:30.445Z,98808.10
2018-07-19T16:52:59.550Z,98804.55
2018-07-19T16:55:28.621Z,98809.10
2018-07-19T16:57:57.702Z,98808.23
2018-07-19T17:00:26.839Z,98800.86
2018-07-19T17:02:55.901Z,98798.86
2018-07-19T17:05:24.973Z,98799.08
2018-07-19T17:07:53.998Z,98796.25
2018-07-19T17:10:23.138Z,98793.79
2018-07-19T17:12:52.150Z,98799.90
2018-07-19T17:15:21.571Z,98801.88
2018-07-19T17:17:50.839Z,98801.83
2018-07-19T17:20:20.080Z,98797.91
2018-07-19T17:22:49.318Z,98793.74
2018-07-19T17:25:18.500Z,98795.69
2018-07-19T17:27:47.576Z,98798.20
2018-07-19T17:30:16.685Z,98796.73
2018-07-19T17:32:46.419Z,98793.20
2018-07-19T17:35:15.589Z,98790.48
2018-07-19T17:37:44.648Z,98798.00
2018-07-19T17:40:13.765Z,98796.30
2018-07-19T17:42:42.965Z,98803.73
2018-07-19T17:45:12.887Z,98800.50
2018-07-19T17:47:42.001Z,98796.41
2018-07-19T17:50:11.080Z,98792.48
2018-07-19T17:52:40.281Z,98791.95
2018-07-19T17:55:09.372Z,98792.95
2018-07-19T17:57:38.447Z,98789.59
2018-07-19T18:00:07.546Z,98790.74
2018-07-19T18:02:36.670Z,98782.51
2018-07-19T18:05:05.838Z,98790.23
2018-07-19T18:07:35.003Z,98785.83
2018-07-19T18:10:04.314Z,98783.47
2018-07-19T18:12:33.414Z,98786.00
2018-07-19T18:15:02.640Z,98788.31
2018-07-19T18:17:31.730Z,98784.50
2018-07-19T18:20:00.949Z,98787.28
2018-07-19T18:22:30.050Z,98786.69
2018-07-19T18:24:59.142Z,98790.00
2018-07-19T18:27:28.250Z,98798.14
2018-07-19T18:29:58.233Z,98797.33
2018-07-19T18:32:27.416Z,98792.51
2018-07-19T18:34:56.618Z,98794.47
2018-07-19T18:37:25.750Z,98792.91
2018-07-19T18:39:54.904Z,98796.57
2018-07-19T18:42:24.945Z,98794.22
2018-07-19T18:44:55.068Z,98788.26
2018-07-19T18:47:24.209Z,98788.47
2018-07-19T18:49:53.309Z,98791.95
2018-07-19T18:52:23.070Z,98793.69
2018-07-19T18:55:23.423Z,98791.16
2018-07-19T18:58:04.512Z,98790.23
2018-07-19T19:00:33.593Z,98792.92
2018-07-19T19:03:02.714Z,98800.55
2018-07-19T19:05:31.969Z,98798.21
2018-07-19T19:08:01.818Z,98798.83
2018-07-19T19:10:30.979Z,98796.11
2018-07-19T19:13:00.065Z,98799.63
2018-07-19T19:15:29.246Z,98798.85
2018-07-19T19:17:58.506Z,98806.05
2018-07-19T19:20:27.660Z,98803.73
2018-07-19T19:22:56.822Z,98811.73
2018-07-19T19:25:26.066Z,98812.90
2018-07-19T19:27:55.225Z,98813.09
2018-07-19T19:30:24.490Z,98814.63
2018-07-19T19:32:53.642Z,98821.64
2018-07-19T19:35:22.841Z,98823.20
2018-07-19T19:37:52.014Z,98825.11
2018-07-19T19:40:21.140Z,98824.23
2018-07-19T19:42:50.198Z,98827.72
2018-07-19T19:45:19.277Z,98828.05
2018-07-19T19:47:48.389Z,98828.27
2018-07-19T19:50:18.273Z,98828.09
2018-07-19T19:52:47.353Z,98828.09
2018-07-19T19:55:16.485Z,98834.49
2018-07-19T19:57:45.650Z,98833.89
2018-07-19T20:00:14.778Z,98834.67
2018-07-19T20:02:43.925Z,98840.86
2018-07-19T20:05:13.042Z,98843.08
2018-07-19T20:07:42.197Z,98841.27
2018-07-19T20:10:11.569Z,98843.16
2018-07-19T20:12:40.697Z,98843.37
2018-07-19T20:15:10.178Z,98846.84
2018-07-19T20:17:39.497Z,98852.61
2018-07-19T20:20:09.385Z,98850.45
2018-07-19T20:22:38.585Z,98852.55
2018-07-19T20:25:08.047Z,98848.15
2018-07-19T20:27:37.364Z,98855.70
2018-07-19T20:30:06.506Z,98850.84
2018-07-19T20:32:35.629Z,98851.59
2018-07-19T20:35:04.796Z,98851.34
2018-07-19T20:37:33.870Z,98848.97
2018-07-19T20:40:03.733Z,98846.80
2018-07-19T20:42:32.909Z,98850.23
2018-07-19T20:45:02.854Z,98855.34
2018-07-19T20:47:31.982Z,98854.81
2018-07-19T20:50:01.042Z,98854.50
2018-07-19T20:52:30.141Z,98856.07
2018-07-19T20:54:59.280Z,98855.91
2018-07-19T20:57:28.381Z,98846.01
2018-07-19T20:59:57.485Z,98850.81
2018-07-19T21:02:26.722Z,98848.64
2018-07-19T21:04:56.021Z,98843.11
2018-07-19T21:07:25.342Z,98846.71
2018-07-19T21:09:54.471Z,98841.70
2018-07-19T21:12:23.558Z,98844.77
2018-07-19T21:14:52.662Z,98844.52
2018-07-19T21:17:21.814Z,98838.56
2018-07-19T21:19:51.149Z,98837.97
2018-07-19T21:22:20.246Z,98839.92
2018-07-19T21:24:49.383Z,98832.27
2018-07-19T21:27:18.482Z,98837.13
2018-07-19T21:29:47.582Z,98837.31
2018-07-19T21:32:16.987Z,98838.21
2018-07-19T21:34:46.177Z,98837.58
2018-07-19T21:37:15.443Z,98844.56
2018-07-19T21:39:45.091Z,98845.77
2018-07-19T21:42:14.271Z,98850.37
2018-07-19T21:44:44.487Z,98853.21
2018-07-19T21:47:13.854Z,98845.52
2018-07-19T21:49:42.981Z,98857.36
2018-07-19T21:52:12.099Z,98860.25
2018-07-19T21:54:41.226Z,98863.24
2018-07-19T21:57:10.355Z,98858.89
2018-07-19T21:59:40.200Z,98862.28
2018-07-19T22:02:11.453Z,98862.56
2018-07-19T22:04:40.549Z,98862.13
2018-07-19T22:07:10.277Z,98859.63
2018-07-19T22:09:39.352Z,98859.17
2018-07-19T22:12:08.562Z,98858.38
2018-07-19T22:14:37.640Z,98860.45
2018-07-19T22:17:06.882Z,98855.22
2018-07-19T22:19:36.059Z,98859.51
2018-07-19T22:22:05.362Z,98859.23
2018-07-19T22:24:34.481Z,98873.45
2018-07-19T22:27:03.591Z,98866.20
2018-07-19T22:29:32.637Z,98872.34
2018-07-19T22:32:01.757Z,98868.50
2018-07-19T22:34:31.082Z,98865.05
2018-07-19T22:37:00.260Z,98864.62
2018-07-19T22:39:29.386Z,98860.25
2018-07-19T22:41:58.520Z,98866.11
2018-07-19T22:44:27.711Z,98865.00
2018-07-19T22:46:56.945Z,98869.52
2018-07-19T22:49:26.051Z,98865.30
2018-07-19T22:51:56.330Z,98868.75
2018-07-19T22:54:25.425Z,98869.46
2018-07-19T22:56:54.526Z,98870.37
2018-07-19T22:59:23.665Z,98867.00
2018-07-19T23:01:52.710Z,98871.30
2018-07-19T23:04:21.762Z,98867.59
2018-07-19T23:06:50.804Z,98869.50
2018-07-19T23:09:19.878Z,98865.58
2018-07-19T23:11:48.901Z,98860.66
2018-07-19T23:14:18.010Z,98866.49
2018-07-19T23:16:47.078Z,98863.80
2018-07-19T23:19:16.255Z,98859.42
2018-07-19T23:21:45.376Z,98859.20
2018-07-19T23:24:14.490Z,98862.02
2018-07-19T23:26:43.569Z,98862.23
2018-07-19T23:29:12.631Z,98860.20
2018-07-19T23:31:41.690Z,98854.38
2018-07-19T23:34:10.757Z,98853.48
2018-07-19T23:36:57.112Z,98856.62
2018-07-19T23:39:30.397Z,98844.72
2018-07-19T23:42:04.981Z,98848.52
2018-07-19T23:44:42.282Z,98850.31
2018-07-19T23:47:15.570Z,98842.58
2018-07-19T23:49:44.622Z,98845.99
2018-07-19T23:52:13.678Z,98842.51
2018-07-19T23:54:42.753Z,98840.63
2018-07-19T23:57:11.805Z,98840.26
2018-07-19T23:59:40.934Z,98846.52
